sensor_id;sensor_type;location;lat;lon;timestamp;temperature;humidity
68813;DHT22;55808;48.112;11.552;2022-11-20T00:01:20;5.20;99.90
68813;DHT22;55808;48.112;11.552;2022-11-20T00:03:46;5.20;99.90
68813;DHT22;55808;48.112;11.552;2022-11-20T00:06:14;5.20;99.90
68813;DHT22;55808;48.112;11.552;2022-11-20T00:08:40;5.30;99.90
68813;DHT22;55808;48.112;11.552;2022-11-20T00:11:10;5.30;99.90
68813;DHT22;55808;48.112;11.552;2022-11-20T00:13:36;5.30;99.90
68813;DHT22;55808;48.112;11.552;2022-11-20T00:16:04;5.30;99.90
68813;DHT22;55808;48.112;11.552;2022-11-20T00:18:30;5.30;99.90
68813;DHT22;55808;48.112;11.552;2022-11-20T00:21:02;5.20;99.90
68813;DHT22;55808;48.112;11.552;2022-11-20T00:23:28;5.30;99.90
68813;DHT22;55808;48.112;11.552;2022-11-20T00:25:53;5.30;99.90
68813;DHT22;55808;48.112;11.552;2022-11-20T00:28:19;5.30;99.90
68813;DHT22;55808;48.112;11.552;2022-11-20T00:30:45;5.30;99.90
68813;DHT22;55808;48.112;11.552;2022-11-20T00:33:10;5.30;99.90
68813;DHT22;55808;48.112;11.552;2022-11-20T00:35:36;5.30;99.90
68813;DHT22;55808;48.112;11.552;2022-11-20T00:38:01;5.30;99.90
68813;DHT22;55808;48.112;11.552;2022-11-20T00:40:27;5.30;99.90
68813;DHT22;55808;48.112;11.552;2022-11-20T00:42:52;5.30;99.90
68813;DHT22;55808;48.112;11.552;2022-11-20T00:45:18;5.30;99.90
68813;DHT22;55808;48.112;11.552;2022-11-20T00:47:44;5.30;99.90
68813;DHT22;55808;48.112;11.552;2022-11-20T00:50:09;5.30;99.90
68813;DHT22;55808;48.112;11.552;2022-11-20T00:52:35;5.30;99.90
68813;DHT22;55808;48.112;11.552;2022-11-20T00:55:01;5.30;99.90
68813;DHT22;55808;48.112;11.552;2022-11-20T00:57:26;5.30;99.90
68813;DHT22;55808;48.112;11.552;2022-11-20T00:59:52;5.30;99.90
68813;DHT22;55808;48.112;11.552;2022-11-20T01:02:17;5.40;99.90
68813;DHT22;55808;48.112;11.552;2022-11-20T01:04:43;5.30;99.90
68813;DHT22;55808;48.112;11.552;2022-11-20T01:07:08;5.30;99.90
68813;DHT22;55808;48.112;11.552;2022-11-20T01:09:34;5.30;99.90
68813;DHT22;55808;48.112;11.552;2022-11-20T01:12:00;5.30;99.90
68813;DHT22;55808;48.112;11.552;2022-11-20T01:14:25;5.30;99.90
68813;DHT22;55808;48.112;11.552;2022-11-20T01:16:52;5.40;99.90
68813;DHT22;55808;48.112;11.552;2022-11-20T01:19:21;5.40;99.90
68813;DHT22;55808;48.112;11.552;2022-11-20T01:21:52;5.40;99.90
68813;DHT22;55808;48.112;11.552;2022-11-20T01:24:43;5.40;99.90
68813;DHT22;55808;48.112;11.552;2022-11-20T01:27:08;5.40;99.90
68813;DHT22;55808;48.112;11.552;2022-11-20T01:29:34;5.40;99.90
68813;DHT22;55808;48.112;11.552;2022-11-20T01:32:01;5.40;99.90
68813;DHT22;55808;48.112;11.552;2022-11-20T01:34:27;5.40;99.90
68813;DHT22;55808;48.112;11.552;2022-11-20T01:36:52;5.40;99.90
68813;DHT22;55808;48.112;11.552;2022-11-20T01:39:21;5.50;99.90
68813;DHT22;55808;48.112;11.552;2022-11-20T01:41:48;5.40;99.90
68813;DHT22;55808;48.112;11.552;2022-11-20T01:44:44;5.50;99.90
68813;DHT22;55808;48.112;11.552;2022-11-20T01:47:14;5.50;99.90
68813;DHT22;55808;48.112;11.552;2022-11-20T01:49:48;5.40;99.90
68813;DHT22;55808;48.112;11.552;2022-11-20T01:52:32;5.40;99.90
68813;DHT22;55808;48.112;11.552;2022-11-20T01:55:09;5.40;99.90
68813;DHT22;55808;48.112;11.552;2022-11-20T01:57:35;5.40;99.90
68813;DHT22;55808;48.112;11.552;2022-11-20T02:00:09;5.40;99.90
68813;DHT22;55808;48.112;11.552;2022-11-20T02:02:37;5.40;99.90
68813;DHT22;55808;48.112;11.552;2022-11-20T02:07:50;5.40;99.90
68813;DHT22;55808;48.112;11.552;2022-11-20T02:10:17;5.40;99.90
68813;DHT22;55808;48.112;11.552;2022-11-20T02:12:43;5.30;99.90
68813;DHT22;55808;48.112;11.552;2022-11-20T02:15:27;5.30;99.90
68813;DHT22;55808;48.112;11.552;2022-11-20T02:17:53;5.30;99.90
68813;DHT22;55808;48.112;11.552;2022-11-20T02:20:20;5.30;99.90
68813;DHT22;55808;48.112;11.552;2022-11-20T02:22:54;5.30;99.90
68813;DHT22;55808;48.112;11.552;2022-11-20T02:25:24;5.20;99.90
68813;DHT22;55808;48.112;11.552;2022-11-20T02:27:51;5.20;99.90
68813;DHT22;55808;48.112;11.552;2022-11-20T02:30:17;5.30;99.90
68813;DHT22;55808;48.112;11.552;2022-11-20T02:32:43;5.20;99.90
68813;DHT22;55808;48.112;11.552;2022-11-20T02:37:56;5.20;99.90
68813;DHT22;55808;48.112;11.552;2022-11-20T02:40:22;5.20;99.90
68813;DHT22;55808;48.112;11.552;2022-11-20T02:42:51;5.20;99.90
68813;DHT22;55808;48.112;11.552;2022-11-20T02:45:18;5.20;99.90
68813;DHT22;55808;48.112;11.552;2022-11-20T02:47:44;5.20;99.90
68813;DHT22;55808;48.112;11.552;2022-11-20T02:50:10;5.20;99.90
68813;DHT22;55808;48.112;11.552;2022-11-20T02:52:35;5.20;99.90
68813;DHT22;55808;48.112;11.552;2022-11-20T02:55:01;5.20;99.90
68813;DHT22;55808;48.112;11.552;2022-11-20T02:57:27;5.20;99.90
68813;DHT22;55808;48.112;11.552;2022-11-20T02:59:53;5.20;99.90
68813;DHT22;55808;48.112;11.552;2022-11-20T03:02:19;5.30;99.90
68813;DHT22;55808;48.112;11.552;2022-11-20T03:04:44;5.20;99.90
68813;DHT22;55808;48.112;11.552;2022-11-20T03:07:10;5.20;99.90
68813;DHT22;55808;48.112;11.552;2022-11-20T03:09:36;5.20;99.90
68813;DHT22;55808;48.112;11.552;2022-11-20T03:12:01;5.20;99.90
68813;DHT22;55808;48.112;11.552;2022-11-20T03:14:27;5.20;99.90
68813;DHT22;55808;48.112;11.552;2022-11-20T03:16:52;5.20;99.90
68813;DHT22;55808;48.112;11.552;2022-11-20T03:19:18;5.20;99.90
68813;DHT22;55808;48.112;11.552;2022-11-20T03:21:44;5.20;99.90
68813;DHT22;55808;48.112;11.552;2022-11-20T03:24:10;5.20;99.90
68813;DHT22;55808;48.112;11.552;2022-11-20T03:26:36;5.20;99.90
68813;DHT22;55808;48.112;11.552;2022-11-20T03:29:04;5.20;99.90
68813;DHT22;55808;48.112;11.552;2022-11-20T03:31:36;5.20;99.90
68813;DHT22;55808;48.112;11.552;2022-11-20T03:34:02;5.20;99.90
68813;DHT22;55808;48.112;11.552;2022-11-20T03:36:29;5.20;99.90
68813;DHT22;55808;48.112;11.552;2022-11-20T03:38:55;5.20;99.90
68813;DHT22;55808;48.112;11.552;2022-11-20T03:41:24;5.20;99.90
68813;DHT22;55808;48.112;11.552;2022-11-20T03:43:54;5.20;99.90
68813;DHT22;55808;48.112;11.552;2022-11-20T03:46:20;5.20;99.90
68813;DHT22;55808;48.112;11.552;2022-11-20T03:48:46;5.20;99.90
68813;DHT22;55808;48.112;11.552;2022-11-20T03:51:23;5.20;99.90
68813;DHT22;55808;48.112;11.552;2022-11-20T03:53:51;5.20;99.90
68813;DHT22;55808;48.112;11.552;2022-11-20T03:56:18;5.20;99.90
68813;DHT22;55808;48.112;11.552;2022-11-20T03:58:44;5.20;99.90
68813;DHT22;55808;48.112;11.552;2022-11-20T04:01:16;5.20;99.90
68813;DHT22;55808;48.112;11.552;2022-11-20T04:03:42;5.20;99.90
68813;DHT22;55808;48.112;11.552;2022-11-20T04:06:11;5.10;99.90
68813;DHT22;55808;48.112;11.552;2022-11-20T04:08:37;5.10;99.90
68813;DHT22;55808;48.112;11.552;2022-11-20T04:13:41;5.10;99.90
68813;DHT22;55808;48.112;11.552;2022-11-20T04:16:08;5.10;99.90
68813;DHT22;55808;48.112;11.552;2022-11-20T04:18:34;5.10;99.90
68813;DHT22;55808;48.112;11.552;2022-11-20T04:21:00;5.10;99.90
68813;DHT22;55808;48.112;11.552;2022-11-20T04:23:26;5.10;99.90
68813;DHT22;55808;48.112;11.552;2022-11-20T04:25:52;5.10;99.90
68813;DHT22;55808;48.112;11.552;2022-11-20T04:28:18;5.10;99.90
68813;DHT22;55808;48.112;11.552;2022-11-20T04:30:44;5.10;99.90
68813;DHT22;55808;48.112;11.552;2022-11-20T04:33:10;5.10;99.90
68813;DHT22;55808;48.112;11.552;2022-11-20T04:35:36;5.10;99.90
68813;DHT22;55808;48.112;11.552;2022-11-20T04:38:03;5.10;99.90
68813;DHT22;55808;48.112;11.552;2022-11-20T04:40:29;5.10;99.90
68813;DHT22;55808;48.112;11.552;2022-11-20T04:42:55;5.10;99.90
68813;DHT22;55808;48.112;11.552;2022-11-20T04:45:22;5.10;99.90
68813;DHT22;55808;48.112;11.552;2022-11-20T04:47:48;5.10;99.90
68813;DHT22;55808;48.112;11.552;2022-11-20T04:50:13;5.10;99.90
68813;DHT22;55808;48.112;11.552;2022-11-20T04:52:39;5.10;99.90
68813;DHT22;55808;48.112;11.552;2022-11-20T04:55:05;5.10;99.90
68813;DHT22;55808;48.112;11.552;2022-11-20T04:57:31;5.00;99.90
68813;DHT22;55808;48.112;11.552;2022-11-20T04:59:56;5.10;99.90
68813;DHT22;55808;48.112;11.552;2022-11-20T05:02:23;5.10;99.90
68813;DHT22;55808;48.112;11.552;2022-11-20T05:04:48;5.10;99.90
68813;DHT22;55808;48.112;11.552;2022-11-20T05:07:14;5.10;99.90
68813;DHT22;55808;48.112;11.552;2022-11-20T05:09:40;5.10;99.90
68813;DHT22;55808;48.112;11.552;2022-11-20T05:12:07;5.10;99.90
68813;DHT22;55808;48.112;11.552;2022-11-20T05:14:33;5.10;99.90
68813;DHT22;55808;48.112;11.552;2022-11-20T05:16:58;5.10;99.90
68813;DHT22;55808;48.112;11.552;2022-11-20T05:19:24;5.10;99.90
68813;DHT22;55808;48.112;11.552;2022-11-20T05:21:49;5.10;99.90
68813;DHT22;55808;48.112;11.552;2022-11-20T05:24:15;5.10;99.90
68813;DHT22;55808;48.112;11.552;2022-11-20T05:26:41;5.10;99.90
68813;DHT22;55808;48.112;11.552;2022-11-20T05:29:08;5.10;99.90
68813;DHT22;55808;48.112;11.552;2022-11-20T05:31:34;5.10;99.90
68813;DHT22;55808;48.112;11.552;2022-11-20T05:34:01;5.10;99.90
68813;DHT22;55808;48.112;11.552;2022-11-20T05:36:27;5.10;99.90
68813;DHT22;55808;48.112;11.552;2022-11-20T05:38:52;5.10;99.90
68813;DHT22;55808;48.112;11.552;2022-11-20T05:41:20;5.10;99.90
68813;DHT22;55808;48.112;11.552;2022-11-20T05:43:47;5.10;99.90
68813;DHT22;55808;48.112;11.552;2022-11-20T05:46:14;5.10;99.90
68813;DHT22;55808;48.112;11.552;2022-11-20T05:48:41;5.10;99.90
68813;DHT22;55808;48.112;11.552;2022-11-20T05:51:08;5.10;99.90
68813;DHT22;55808;48.112;11.552;2022-11-20T05:53:35;5.10;99.90
68813;DHT22;55808;48.112;11.552;2022-11-20T05:56:09;5.10;99.90
68813;DHT22;55808;48.112;11.552;2022-11-20T05:58:35;5.10;99.90
68813;DHT22;55808;48.112;11.552;2022-11-20T06:03:36;5.10;99.90
68813;DHT22;55808;48.112;11.552;2022-11-20T06:06:03;5.10;99.90
68813;DHT22;55808;48.112;11.552;2022-11-20T06:08:30;5.10;99.90
68813;DHT22;55808;48.112;11.552;2022-11-20T06:10:56;5.10;99.90
68813;DHT22;55808;48.112;11.552;2022-11-20T06:13:21;5.10;99.90
68813;DHT22;55808;48.112;11.552;2022-11-20T06:15:53;4.90;99.90
68813;DHT22;55808;48.112;11.552;2022-11-20T06:18:19;4.90;99.90
68813;DHT22;55808;48.112;11.552;2022-11-20T06:20:45;4.90;99.90
68813;DHT22;55808;48.112;11.552;2022-11-20T06:23:11;4.90;99.90
68813;DHT22;55808;48.112;11.552;2022-11-20T06:25:42;4.80;99.90
68813;DHT22;55808;48.112;11.552;2022-11-20T06:28:08;4.70;99.90
68813;DHT22;55808;48.112;11.552;2022-11-20T06:30:35;4.80;99.90
68813;DHT22;55808;48.112;11.552;2022-11-20T06:33:01;4.70;99.90
68813;DHT22;55808;48.112;11.552;2022-11-20T06:35:26;4.80;99.90
68813;DHT22;55808;48.112;11.552;2022-11-20T06:37:52;4.70;99.90
68813;DHT22;55808;48.112;11.552;2022-11-20T06:40:18;4.70;99.90
68813;DHT22;55808;48.112;11.552;2022-11-20T06:42:44;4.70;99.90
68813;DHT22;55808;48.112;11.552;2022-11-20T06:45:09;4.70;99.90
68813;DHT22;55808;48.112;11.552;2022-11-20T06:47:35;4.70;99.50
68813;DHT22;55808;48.112;11.552;2022-11-20T06:50:01;4.80;99.30
68813;DHT22;55808;48.112;11.552;2022-11-20T06:52:27;4.80;98.50
68813;DHT22;55808;48.112;11.552;2022-11-20T06:54:52;4.80;98.50
68813;DHT22;55808;48.112;11.552;2022-11-20T06:57:20;4.80;98.60
68813;DHT22;55808;48.112;11.552;2022-11-20T06:59:46;4.90;98.70
68813;DHT22;55808;48.112;11.552;2022-11-20T07:02:12;4.90;98.30
68813;DHT22;55808;48.112;11.552;2022-11-20T07:04:40;5.00;98.40
68813;DHT22;55808;48.112;11.552;2022-11-20T07:07:08;5.00;98.40
68813;DHT22;55808;48.112;11.552;2022-11-20T07:09:35;5.10;98.80
68813;DHT22;55808;48.112;11.552;2022-11-20T07:12:06;5.10;98.00
68813;DHT22;55808;48.112;11.552;2022-11-20T07:14:31;5.20;98.20
68813;DHT22;55808;48.112;11.552;2022-11-20T07:16:57;5.10;98.10
68813;DHT22;55808;48.112;11.552;2022-11-20T07:19:23;5.10;98.40
68813;DHT22;55808;48.112;11.552;2022-11-20T07:21:48;5.10;98.80
68813;DHT22;55808;48.112;11.552;2022-11-20T07:24:14;5.00;99.10
68813;DHT22;55808;48.112;11.552;2022-11-20T07:26:39;5.00;99.30
68813;DHT22;55808;48.112;11.552;2022-11-20T07:29:05;5.00;99.80
68813;DHT22;55808;48.112;11.552;2022-11-20T07:31:31;5.00;99.90
68813;DHT22;55808;48.112;11.552;2022-11-20T07:33:56;5.10;99.80
68813;DHT22;55808;48.112;11.552;2022-11-20T07:36:22;5.10;99.80
68813;DHT22;55808;48.112;11.552;2022-11-20T07:38:47;5.10;99.50
68813;DHT22;55808;48.112;11.552;2022-11-20T07:41:13;5.10;99.30
68813;DHT22;55808;48.112;11.552;2022-11-20T07:43:39;5.10;99.20
68813;DHT22;55808;48.112;11.552;2022-11-20T07:46:04;5.10;98.90
68813;DHT22;55808;48.112;11.552;2022-11-20T07:48:30;5.10;98.70
68813;DHT22;55808;48.112;11.552;2022-11-20T07:50:56;5.20;98.70
68813;DHT22;55808;48.112;11.552;2022-11-20T07:53:22;5.20;98.30
68813;DHT22;55808;48.112;11.552;2022-11-20T07:55:48;5.20;98.00
68813;DHT22;55808;48.112;11.552;2022-11-20T07:58:14;5.30;98.40
68813;DHT22;55808;48.112;11.552;2022-11-20T08:00:40;5.20;98.00
68813;DHT22;55808;48.112;11.552;2022-11-20T08:03:06;5.30;98.20
68813;DHT22;55808;48.112;11.552;2022-11-20T08:05:32;5.30;98.20
68813;DHT22;55808;48.112;11.552;2022-11-20T08:07:58;5.30;97.80
68813;DHT22;55808;48.112;11.552;2022-11-20T08:10:24;5.40;97.60
68813;DHT22;55808;48.112;11.552;2022-11-20T08:12:51;5.40;97.60
68813;DHT22;55808;48.112;11.552;2022-11-20T08:15:37;5.40;97.60
68813;DHT22;55808;48.112;11.552;2022-11-20T08:18:10;5.40;97.30
68813;DHT22;55808;48.112;11.552;2022-11-20T08:20:37;5.50;97.30
68813;DHT22;55808;48.112;11.552;2022-11-20T08:23:05;5.50;97.00
68813;DHT22;55808;48.112;11.552;2022-11-20T08:25:31;5.50;97.00
68813;DHT22;55808;48.112;11.552;2022-11-20T08:28:00;5.50;96.80
68813;DHT22;55808;48.112;11.552;2022-11-20T08:30:27;5.50;96.60
68813;DHT22;55808;48.112;11.552;2022-11-20T08:32:53;5.50;96.40
68813;DHT22;55808;48.112;11.552;2022-11-20T08:35:22;5.50;96.40
68813;DHT22;55808;48.112;11.552;2022-11-20T08:37:48;5.60;96.40
68813;DHT22;55808;48.112;11.552;2022-11-20T08:40:14;5.70;96.00
68813;DHT22;55808;48.112;11.552;2022-11-20T08:42:50;5.70;95.80
68813;DHT22;55808;48.112;11.552;2022-11-20T08:45:17;5.80;95.70
68813;DHT22;55808;48.112;11.552;2022-11-20T08:47:43;5.80;95.80
68813;DHT22;55808;48.112;11.552;2022-11-20T08:50:10;5.80;95.60
68813;DHT22;55808;48.112;11.552;2022-11-20T08:52:36;5.80;95.60
68813;DHT22;55808;48.112;11.552;2022-11-20T08:55:01;5.90;95.40
68813;DHT22;55808;48.112;11.552;2022-11-20T08:57:27;5.90;95.10
68813;DHT22;55808;48.112;11.552;2022-11-20T08:59:53;5.90;95.10
68813;DHT22;55808;48.112;11.552;2022-11-20T09:02:18;5.90;95.20
68813;DHT22;55808;48.112;11.552;2022-11-20T09:04:44;6.00;94.00
68813;DHT22;55808;48.112;11.552;2022-11-20T09:07:10;6.00;94.30
68813;DHT22;55808;48.112;11.552;2022-11-20T09:09:35;6.00;94.30
68813;DHT22;55808;48.112;11.552;2022-11-20T09:12:01;6.00;94.20
68813;DHT22;55808;48.112;11.552;2022-11-20T09:14:26;6.00;94.40
68813;DHT22;55808;48.112;11.552;2022-11-20T09:16:57;6.10;94.30
68813;DHT22;55808;48.112;11.552;2022-11-20T09:19:24;6.10;93.90
68813;DHT22;55808;48.112;11.552;2022-11-20T09:21:49;6.10;93.80
68813;DHT22;55808;48.112;11.552;2022-11-20T09:24:15;6.20;92.90
68813;DHT22;55808;48.112;11.552;2022-11-20T09:26:40;6.20;93.20
68813;DHT22;55808;48.112;11.552;2022-11-20T09:29:06;6.20;93.20
68813;DHT22;55808;48.112;11.552;2022-11-20T09:31:32;6.30;92.80
68813;DHT22;55808;48.112;11.552;2022-11-20T09:33:57;6.30;92.60
68813;DHT22;55808;48.112;11.552;2022-11-20T09:36:23;6.30;92.80
68813;DHT22;55808;48.112;11.552;2022-11-20T09:38:49;6.40;92.60
68813;DHT22;55808;48.112;11.552;2022-11-20T09:41:45;6.40;92.30
68813;DHT22;55808;48.112;11.552;2022-11-20T09:52:54;6.50;91.30
68813;DHT22;55808;48.112;11.552;2022-11-20T09:55:23;6.50;90.80
68813;DHT22;55808;48.112;11.552;2022-11-20T09:57:51;6.60;91.20
68813;DHT22;55808;48.112;11.552;2022-11-20T10:00:17;6.90;90.50
68813;DHT22;55808;48.112;11.552;2022-11-20T10:03:03;7.00;90.40
68813;DHT22;55808;48.112;11.552;2022-11-20T10:08:21;7.40;89.10
68813;DHT22;55808;48.112;11.552;2022-11-20T10:11:23;7.50;88.90
68813;DHT22;55808;48.112;11.552;2022-11-20T10:25:24;7.50;88.40
68813;DHT22;55808;48.112;11.552;2022-11-20T10:28:13;7.70;88.70
68813;DHT22;55808;48.112;11.552;2022-11-20T10:30:43;7.90;87.90
68813;DHT22;55808;48.112;11.552;2022-11-20T10:33:16;8.00;87.30
68813;DHT22;55808;48.112;11.552;2022-11-20T10:36:08;7.80;87.40
68813;DHT22;55808;48.112;11.552;2022-11-20T10:38:43;7.90;86.60
68813;DHT22;55808;48.112;11.552;2022-11-20T10:41:17;8.00;86.20
68813;DHT22;55808;48.112;11.552;2022-11-20T10:44:17;7.90;86.10
68813;DHT22;55808;48.112;11.552;2022-11-20T10:47:08;7.90;86.80
68813;DHT22;55808;48.112;11.552;2022-11-20T10:49:37;7.80;85.50
68813;DHT22;55808;48.112;11.552;2022-11-20T10:52:47;7.70;85.90
68813;DHT22;55808;48.112;11.552;2022-11-20T10:55:56;7.70;85.80
68813;DHT22;55808;48.112;11.552;2022-11-20T11:00:41;7.50;86.50
68813;DHT22;55808;48.112;11.552;2022-11-20T11:03:24;7.50;86.00
68813;DHT22;55808;48.112;11.552;2022-11-20T11:08:53;7.50;87.60
68813;DHT22;55808;48.112;11.552;2022-11-20T11:11:23;7.30;87.40
68813;DHT22;55808;48.112;11.552;2022-11-20T11:13:50;7.20;87.80
68813;DHT22;55808;48.112;11.552;2022-11-20T11:16:26;7.20;88.20
68813;DHT22;55808;48.112;11.552;2022-11-20T11:19:02;7.30;88.70
68813;DHT22;55808;48.112;11.552;2022-11-20T11:21:28;7.40;89.20
68813;DHT22;55808;48.112;11.552;2022-11-20T11:24:02;7.50;88.60
68813;DHT22;55808;48.112;11.552;2022-11-20T11:26:28;7.60;88.00
68813;DHT22;55808;48.112;11.552;2022-11-20T11:29:00;7.60;88.40
68813;DHT22;55808;48.112;11.552;2022-11-20T11:31:28;7.50;89.40
68813;DHT22;55808;48.112;11.552;2022-11-20T11:34:11;7.50;89.10
68813;DHT22;55808;48.112;11.552;2022-11-20T11:36:37;7.50;87.20
68813;DHT22;55808;48.112;11.552;2022-11-20T11:39:05;7.40;88.30
68813;DHT22;55808;48.112;11.552;2022-11-20T11:41:33;7.40;87.70
68813;DHT22;55808;48.112;11.552;2022-11-20T11:44:18;7.60;86.90
68813;DHT22;55808;48.112;11.552;2022-11-20T11:47:04;7.70;87.00
68813;DHT22;55808;48.112;11.552;2022-11-20T11:49:31;7.70;86.20
68813;DHT22;55808;48.112;11.552;2022-11-20T11:52:18;7.90;85.50
68813;DHT22;55808;48.112;11.552;2022-11-20T12:00:21;8.50;84.60
68813;DHT22;55808;48.112;11.552;2022-11-20T12:05:32;8.40;83.60
68813;DHT22;55808;48.112;11.552;2022-11-20T12:08:27;8.10;85.00
68813;DHT22;55808;48.112;11.552;2022-11-20T12:16:40;7.30;89.80
68813;DHT22;55808;48.112;11.552;2022-11-20T12:19:13;6.50;92.40
68813;DHT22;55808;48.112;11.552;2022-11-20T12:24:28;6.40;93.30
68813;DHT22;55808;48.112;11.552;2022-11-20T12:45:04;5.60;96.40
68813;DHT22;55808;48.112;11.552;2022-11-20T12:50:59;5.70;96.70
68813;DHT22;55808;48.112;11.552;2022-11-20T12:53:36;5.70;97.50
68813;DHT22;55808;48.112;11.552;2022-11-20T13:06:50;6.00;96.40
68813;DHT22;55808;48.112;11.552;2022-11-20T13:09:19;6.00;96.80
68813;DHT22;55808;48.112;11.552;2022-11-20T13:19:48;6.00;96.80
68813;DHT22;55808;48.112;11.552;2022-11-20T13:22:42;5.90;97.70
68813;DHT22;55808;48.112;11.552;2022-11-20T13:25:25;5.50;99.90
68813;DHT22;55808;48.112;11.552;2022-11-20T13:27:52;5.30;99.90
68813;DHT22;55808;48.112;11.552;2022-11-20T13:30:24;5.10;99.90
68813;DHT22;55808;48.112;11.552;2022-11-20T13:33:09;5.10;99.90
68813;DHT22;55808;48.112;11.552;2022-11-20T13:35:57;5.00;99.90
68813;DHT22;55808;48.112;11.552;2022-11-20T13:38:23;4.90;99.90
68813;DHT22;55808;48.112;11.552;2022-11-20T13:40:59;5.00;99.90
68813;DHT22;55808;48.112;11.552;2022-11-20T13:43:47;5.10;99.90
68813;DHT22;55808;48.112;11.552;2022-11-20T13:46:13;5.00;99.90
68813;DHT22;55808;48.112;11.552;2022-11-20T13:48:45;5.20;99.90
68813;DHT22;55808;48.112;11.552;2022-11-20T13:54:06;5.40;99.90
68813;DHT22;55808;48.112;11.552;2022-11-20T14:02:43;5.50;99.90
68813;DHT22;55808;48.112;11.552;2022-11-20T14:05:28;5.60;99.90
68813;DHT22;55808;48.112;11.552;2022-11-20T14:07:57;5.60;99.90
68813;DHT22;55808;48.112;11.552;2022-11-20T14:10:28;5.80;99.90
68813;DHT22;55808;48.112;11.552;2022-11-20T14:12:53;5.80;99.90
68813;DHT22;55808;48.112;11.552;2022-11-20T14:15:28;5.90;99.40
68813;DHT22;55808;48.112;11.552;2022-11-20T14:17:54;6.00;99.90
68813;DHT22;55808;48.112;11.552;2022-11-20T14:20:24;6.00;98.20
68813;DHT22;55808;48.112;11.552;2022-11-20T14:22:52;6.10;98.20
68813;DHT22;55808;48.112;11.552;2022-11-20T14:25:21;6.10;98.30
68813;DHT22;55808;48.112;11.552;2022-11-20T14:27:52;6.10;97.50
68813;DHT22;55808;48.112;11.552;2022-11-20T14:30:23;6.10;97.40
68813;DHT22;55808;48.112;11.552;2022-11-20T14:32:51;6.10;97.20
68813;DHT22;55808;48.112;11.552;2022-11-20T14:35:30;6.20;97.70
68813;DHT22;55808;48.112;11.552;2022-11-20T14:37:56;6.20;97.00
68813;DHT22;55808;48.112;11.552;2022-11-20T14:40:31;6.20;97.20
68813;DHT22;55808;48.112;11.552;2022-11-20T14:42:58;6.20;96.70
68813;DHT22;55808;48.112;11.552;2022-11-20T14:45:25;6.20;96.90
68813;DHT22;55808;48.112;11.552;2022-11-20T14:47:53;6.20;96.90
68813;DHT22;55808;48.112;11.552;2022-11-20T14:50:25;6.20;97.00
68813;DHT22;55808;48.112;11.552;2022-11-20T14:52:59;6.10;96.50
68813;DHT22;55808;48.112;11.552;2022-11-20T14:55:34;6.10;96.30
68813;DHT22;55808;48.112;11.552;2022-11-20T14:58:21;6.10;96.60
68813;DHT22;55808;48.112;11.552;2022-11-20T15:01:00;6.10;95.70
68813;DHT22;55808;48.112;11.552;2022-11-20T15:03:38;6.10;96.00
68813;DHT22;55808;48.112;11.552;2022-11-20T15:06:09;6.10;96.00
68813;DHT22;55808;48.112;11.552;2022-11-20T15:08:36;6.00;96.20
68813;DHT22;55808;48.112;11.552;2022-11-20T15:11:01;5.90;95.60
68813;DHT22;55808;48.112;11.552;2022-11-20T15:13:38;6.00;95.30
68813;DHT22;55808;48.112;11.552;2022-11-20T15:16:18;6.00;95.00
68813;DHT22;55808;48.112;11.552;2022-11-20T15:18:44;6.00;95.20
68813;DHT22;55808;48.112;11.552;2022-11-20T15:21:12;5.90;95.30
68813;DHT22;55808;48.112;11.552;2022-11-20T15:23:38;5.90;95.30
68813;DHT22;55808;48.112;11.552;2022-11-20T15:26:05;6.00;95.20
68813;DHT22;55808;48.112;11.552;2022-11-20T15:28:34;5.90;95.50
68813;DHT22;55808;48.112;11.552;2022-11-20T15:31:00;5.90;95.30
68813;DHT22;55808;48.112;11.552;2022-11-20T15:33:27;5.90;96.00
68813;DHT22;55808;48.112;11.552;2022-11-20T15:35:53;5.80;96.50
68813;DHT22;55808;48.112;11.552;2022-11-20T15:38:18;5.80;95.60
68813;DHT22;55808;48.112;11.552;2022-11-20T15:40:44;5.80;95.70
68813;DHT22;55808;48.112;11.552;2022-11-20T15:43:10;5.80;95.90
68813;DHT22;55808;48.112;11.552;2022-11-20T15:45:44;5.80;96.00
68813;DHT22;55808;48.112;11.552;2022-11-20T15:48:23;5.70;95.80
68813;DHT22;55808;48.112;11.552;2022-11-20T15:51:00;5.60;95.90
68813;DHT22;55808;48.112;11.552;2022-11-20T15:53:27;5.80;96.50
68813;DHT22;55808;48.112;11.552;2022-11-20T15:55:53;5.60;96.20
68813;DHT22;55808;48.112;11.552;2022-11-20T15:58:18;5.50;96.30
68813;DHT22;55808;48.112;11.552;2022-11-20T16:00:44;5.50;96.40
68813;DHT22;55808;48.112;11.552;2022-11-20T16:03:14;5.50;96.60
68813;DHT22;55808;48.112;11.552;2022-11-20T16:05:40;5.40;96.70
68813;DHT22;55808;48.112;11.552;2022-11-20T16:08:06;5.30;96.70
68813;DHT22;55808;48.112;11.552;2022-11-20T16:10:32;5.30;96.70
68813;DHT22;55808;48.112;11.552;2022-11-20T16:12:57;5.20;97.00
68813;DHT22;55808;48.112;11.552;2022-11-20T16:15:41;5.30;97.10
68813;DHT22;55808;48.112;11.552;2022-11-20T16:18:12;5.20;97.20
68813;DHT22;55808;48.112;11.552;2022-11-20T16:20:38;5.10;97.30
68813;DHT22;55808;48.112;11.552;2022-11-20T16:23:05;5.10;97.50
68813;DHT22;55808;48.112;11.552;2022-11-20T16:25:31;5.10;97.90
68813;DHT22;55808;48.112;11.552;2022-11-20T16:27:57;5.00;97.80
68813;DHT22;55808;48.112;11.552;2022-11-20T16:30:23;5.00;97.90
68813;DHT22;55808;48.112;11.552;2022-11-20T16:32:48;5.00;98.00
68813;DHT22;55808;48.112;11.552;2022-11-20T16:35:14;5.00;98.10
68813;DHT22;55808;48.112;11.552;2022-11-20T16:37:40;4.90;98.20
68813;DHT22;55808;48.112;11.552;2022-11-20T16:40:07;4.90;98.50
68813;DHT22;55808;48.112;11.552;2022-11-20T16:42:34;4.90;98.50
68813;DHT22;55808;48.112;11.552;2022-11-20T16:44:59;4.90;98.50
68813;DHT22;55808;48.112;11.552;2022-11-20T16:50:01;5.00;98.50
68813;DHT22;55808;48.112;11.552;2022-11-20T16:52:27;4.90;98.60
68813;DHT22;55808;48.112;11.552;2022-11-20T16:54:54;4.80;98.90
68813;DHT22;55808;48.112;11.552;2022-11-20T16:57:19;4.80;99.20
68813;DHT22;55808;48.112;11.552;2022-11-20T16:59:45;4.70;99.40
68813;DHT22;55808;48.112;11.552;2022-11-20T17:02:11;4.80;99.30
68813;DHT22;55808;48.112;11.552;2022-11-20T17:04:37;4.70;99.10
68813;DHT22;55808;48.112;11.552;2022-11-20T17:07:02;4.70;99.20
68813;DHT22;55808;48.112;11.552;2022-11-20T17:09:28;4.60;99.40
68813;DHT22;55808;48.112;11.552;2022-11-20T17:11:54;4.60;99.50
68813;DHT22;55808;48.112;11.552;2022-11-20T17:14:19;4.60;99.50
68813;DHT22;55808;48.112;11.552;2022-11-20T17:16:45;4.60;99.90
68813;DHT22;55808;48.112;11.552;2022-11-20T17:19:12;4.50;99.90
68813;DHT22;55808;48.112;11.552;2022-11-20T17:21:40;4.50;99.90
68813;DHT22;55808;48.112;11.552;2022-11-20T17:24:11;4.50;99.90
68813;DHT22;55808;48.112;11.552;2022-11-20T17:26:40;4.40;99.90
68813;DHT22;55808;48.112;11.552;2022-11-20T17:29:06;4.40;99.90